Terminal Aerodrome Forecast
Issued by NWS Charleston, WV

Current Version | Previous Version | Text Only | Print | Product List | Glossary Off
Versions: 1 2 3 4 5 6 7 8 9 10 11 12 13 14 15 16 17 18 19 20 21 22 23

000
FTUS41 KRLX 272333
TAFEKN
TAF
KEKN 272333Z 2800/2824 00000KT P6SM BKN025
      TEMPO 2800/2802 BKN035
     FM280500 00000KT 3SM BR SCT001 BKN020
     FM281100 VRB03KT 5SM +SHRA BR VCTS BKN030CB
     FM281800 23005KT 6SM SHRA BR VCTS BKN030CB
     FM282300 21004KT P6SM VCTS BKN030CB=

USA.gov is the U.S. government's official web portal to all federal, state and local government web resources and services.